Time;durP1;ratioP1;P1;durP2;ratioP2;P2;SDS_P1;SDS_P2;PMS_P1;PMS_P2;Temp;Humidity;BMP_temperature;BMP_pressure;BME280_temperature;BME280_humidity;BME280_pressure;Samples;Min_cycle;Max_cycle;Signal;HPM_P1;HPM_P2
2022/04/11 00:01:43;;;;;;;13.77;7.63;;;;;;;0.57;100.00;100523.22;5080244;28;20028;-82
2022/04/11 00:04:08;;;;;;;12.40;7.43;;;;;;;0.54;100.00;100524.03;5081594;28;20374;-84
2022/04/11 00:06:33;;;;;;;12.43;7.95;;;;;;;0.51;100.00;100526.66;5078024;28;20078;-83
2022/04/11 00:08:59;;;;;;;11.57;8.20;;;;;;;0.50;100.00;100526.59;5076260;28;20028;-82
2022/04/11 00:11:24;;;;;;;12.77;7.90;;;;;;;0.49;100.00;100530.97;5076641;28;20111;-82
2022/04/11 00:13:50;;;;;;;11.05;7.78;;;;;;;0.48;100.00;100523.97;5076593;28;20024;-82
2022/04/11 00:16:15;;;;;;;13.55;7.72;;;;;;;0.46;100.00;100527.44;5075468;28;20103;-83
2022/04/11 00:18:40;;;;;;;15.90;7.70;;;;;;;0.42;100.00;100530.00;5077108;28;20105;-84
2022/04/11 00:21:05;;;;;;;12.88;7.93;;;;;;;0.40;100.00;100525.59;5081283;28;20032;-85
2022/04/11 00:23:32;;;;;;;12.30;7.05;;;;;;;0.37;100.00;100526.41;5080722;28;20149;-83
2022/04/11 00:25:57;;;;;;;12.15;7.32;;;;;;;0.35;100.00;100522.00;5081297;28;20024;-84
2022/04/11 00:28:22;;;;;;;14.85;7.80;;;;;;;0.31;100.00;100521.94;5079454;28;20024;-84
2022/04/11 00:30:48;;;;;;;12.40;7.20;;;;;;;0.28;100.00;100521.03;5079628;28;20054;-85
2022/04/11 00:33:13;;;;;;;13.23;7.63;;;;;;;0.22;100.00;100527.06;5078370;28;20032;-84
2022/04/11 00:35:38;;;;;;;11.45;7.25;;;;;;;0.19;100.00;100524.38;5079171;28;20036;-85
2022/04/11 00:38:04;;;;;;;13.25;7.90;;;;;;;0.17;100.00;100513.84;5081121;28;20032;-84
2022/04/11 00:40:31;;;;;;;13.45;8.10;;;;;;;0.19;100.00;100513.88;5082189;28;20040;-84
2022/04/11 00:42:56;;;;;;;13.52;7.57;;;;;;;0.20;100.00;100520.91;5076180;28;20028;-83
2022/04/11 00:45:22;;;;;;;17.27;7.70;;;;;;;0.18;100.00;100512.13;5076145;28;20392;-83
2022/04/11 00:47:47;;;;;;;12.82;8.10;;;;;;;0.20;100.00;100518.28;5074446;28;20085;-82
2022/04/11 00:50:14;;;;;;;16.38;7.78;;;;;;;0.18;100.00;100509.50;5074744;28;20024;-84
2022/04/11 00:52:45;;;;;;;12.90;7.85;;;;;;;0.14;100.00;100512.91;5074798;28;20024;-83
2022/04/11 00:55:12;;;;;;;14.45;8.25;;;;;;;0.14;100.00;100518.16;5076085;28;20017;-84
2022/04/11 00:57:39;;;;;;;13.48;7.40;;;;;;;0.15;100.00;100514.69;5074574;28;20074;-82
2022/04/11 01:00:07;;;;;;;13.45;8.35;;;;;;;0.13;100.00;100511.16;5076810;28;20024;-84
2022/04/11 01:02:33;;;;;;;13.27;7.88;;;;;;;0.12;100.00;100504.13;5079703;28;20024;-84
2022/04/11 01:04:58;;;;;;;13.27;7.25;;;;;;;0.09;100.00;100512.84;5078857;28;20491;-84
2022/04/11 01:07:24;;;;;;;14.57;7.82;;;;;;;0.08;100.00;100509.31;5078900;28;20029;-83
2022/04/11 01:09:49;;;;;;;12.50;7.90;;;;;;;0.04;100.00;100507.50;5077983;28;20008;-84
2022/04/11 01:12:15;;;;;;;14.20;7.40;;;;;;;0.04;100.00;100507.50;5078021;28;20435;-84
2022/04/11 01:14:41;;;;;;;13.30;7.20;;;;;;;0.04;100.00;100512.75;5077858;28;20422;-84
2022/04/11 01:17:07;;;;;;;15.80;8.13;;;;;;;0.02;100.00;100514.47;5077641;28;20017;-84
2022/04/11 01:19:32;;;;;;;12.82;7.78;;;;;;;-0.01;100.00;100503.91;5073862;28;20028;-84
2022/04/11 01:21:57;;;;;;;12.27;7.38;;;;;;;-0.04;100.00;100504.75;5075995;28;20024;-83
2022/04/11 01:24:23;;;;;;;13.40;7.32;;;;;;;-0.08;100.00;100502.06;5075788;28;20036;-84
2022/04/11 01:26:49;;;;;;;11.80;7.72;;;;;;;-0.15;100.00;100511.53;5076810;28;20021;-84
2022/04/11 01:29:18;;;;;;;11.90;7.63;;;;;;;-0.21;100.00;100507.09;5075269;28;20055;-83
2022/04/11 01:31:44;;;;;;;11.90;7.03;;;;;;;-0.24;100.00;100510.53;5075322;28;20016;-84
2022/04/11 01:34:10;;;;;;;13.57;7.55;;;;;;;-0.25;100.00;100505.25;5074023;28;20504;-83
2022/04/11 01:36:35;;;;;;;13.77;7.70;;;;;;;-0.26;100.00;100508.75;5074154;28;20115;-84
2022/04/11 01:39:01;;;;;;;11.80;7.60;;;;;;;-0.28;100.00;100503.44;5076328;28;20016;-84
2022/04/11 01:41:26;;;;;;;16.17;7.80;;;;;;;-0.33;100.00;100509.50;5078540;28;20052;-84
2022/04/11 01:43:51;;;;;;;16.15;8.30;;;;;;;-0.34;100.00;100500.72;5076475;28;20031;-84
2022/04/11 01:46:17;;;;;;;14.80;8.32;;;;;;;-0.35;100.00;100502.47;5077704;28;20035;-84
2022/04/11 01:48:42;;;;;;;13.15;8.27;;;;;;;-0.36;100.00;100498.06;5076733;28;20032;-84
2022/04/11 01:51:07;;;;;;;15.88;8.13;;;;;;;-0.40;100.00;100504.13;5077954;28;20111;-85
2022/04/11 01:53:33;;;;;;;13.25;7.45;;;;;;;-0.42;100.00;100497.97;5076991;28;20021;-82
2022/04/11 01:55:58;;;;;;;13.70;7.65;;;;;;;-0.44;100.00;100499.69;5074418;28;20469;-82
2022/04/11 01:58:23;;;;;;;13.52;7.82;;;;;;;-0.48;100.00;100492.59;5072974;28;20032;-83
2022/04/11 02:00:49;;;;;;;12.40;7.32;;;;;;;-0.49;100.00;100493.47;5073206;28;20111;-84
2022/04/11 02:03:14;;;;;;;11.88;7.32;;;;;;;-0.52;100.00;100491.66;5074695;28;20535;-84
2022/04/11 02:05:41;;;;;;;12.07;7.75;;;;;;;-0.52;100.00;100490.78;5073572;28;20028;-84
2022/04/11 02:08:10;;;;;;;13.90;7.40;;;;;;;-0.51;100.00;100488.16;5074423;28;20024;-84
2022/04/11 02:10:36;;;;;;;14.50;7.57;;;;;;;-0.53;100.00;100489.88;5073255;28;20024;-84
2022/04/11 02:13:02;;;;;;;11.75;7.57;;;;;;;-0.54;100.00;100493.34;5073912;28;20470;-83
2022/04/11 02:15:27;;;;;;;11.55;6.97;;;;;;;-0.51;100.00;100484.66;5073026;28;20047;-84
2022/04/11 02:17:52;;;;;;;14.13;7.30;;;;;;;-0.53;100.00;100483.75;5073416;28;20035;-84
2022/04/11 02:20:18;;;;;;;12.98;7.75;;;;;;;-0.50;100.00;100484.69;5075976;28;20441;-83
2022/04/11 02:22:49;;;;;;;12.35;7.45;;;;;;;-0.51;100.00;100487.28;5077305;28;20525;-83
2022/04/11 02:25:15;;;;;;;11.38;6.95;;;;;;;-0.46;100.00;100486.50;5076271;28;20017;-84
2022/04/11 02:27:41;;;;;;;13.25;7.20;;;;;;;-0.48;100.00;100487.34;5077382;28;20020;-83
2022/04/11 02:30:08;;;;;;;12.88;7.07;;;;;;;-0.49;100.00;100481.19;5075094;28;20438;-83
2022/04/11 02:32:33;;;;;;;12.27;7.25;;;;;;;-0.49;100.00;100481.19;5073548;28;20508;-82
2022/04/11 02:34:58;;;;;;;14.93;8.05;;;;;;;-0.50;100.00;100484.69;5072432;28;20064;-82
2022/04/11 02:37:24;;;;;;;13.20;6.60;;;;;;;-0.53;100.00;100483.75;5073565;28;20021;-82
2022/04/11 02:39:49;;;;;;;13.80;7.28;;;;;;;-0.55;100.00;100482.84;5074051;28;20034;-84
2022/04/11 02:42:24;;;;;;;14.82;8.13;;;;;;;-0.60;100.00;100475.78;5072323;28;20052;-84
2022/04/11 02:44:50;;;;;;;15.65;7.78;;;;;;;-0.64;100.00;100479.16;5074001;28;20503;-83
2022/04/11 02:47:16;;;;;;;12.00;7.70;;;;;;;-0.66;100.00;100473.00;5072419;28;20028;-85
2022/04/11 02:49:42;;;;;;;13.77;7.22;;;;;;;-0.65;100.00;100473.91;5072553;28;20029;-83
2022/04/11 02:52:07;;;;;;;15.63;7.10;;;;;;;-0.67;100.00;100463.41;5072414;28;20013;-83
2022/04/11 02:54:32;;;;;;;16.42;7.15;;;;;;;-0.66;100.00;100461.63;5072414;28;20028;-83
2022/04/11 02:56:58;;;;;;;15.18;6.97;;;;;;;-0.66;100.00;100465.16;5072210;28;20043;-83
2022/04/11 02:59:23;;;;;;;12.80;7.32;;;;;;;-0.65;100.00;100468.66;5072323;28;20028;-82
2022/04/11 03:01:49;;;;;;;13.35;6.85;;;;;;;-0.67;100.00;100468.66;5072407;28;20054;-83
2022/04/11 03:04:16;;;;;;;14.93;7.00;;;;;;;-0.66;100.00;100462.53;5075627;28;20031;-84
2022/04/11 03:06:41;;;;;;;15.60;6.75;;;;;;;-0.62;100.00;100459.09;5073232;28;20493;-83
2022/04/11 03:09:08;;;;;;;13.43;6.85;;;;;;;-0.59;100.00;100460.88;5073573;28;20078;-83
2022/04/11 03:11:33;;;;;;;10.10;5.95;;;;;;;-0.55;100.00;100464.47;5072181;28;20104;-85
2022/04/11 03:13:59;;;;;;;13.45;6.20;;;;;;;-0.50;100.00;100457.56;5072296;28;20031;-85
2022/04/11 03:16:24;;;;;;;17.15;6.55;;;;;;;-0.48;100.00;100466.34;5072769;28;20024;-84
2022/04/11 03:18:49;;;;;;;15.43;5.65;;;;;;;-0.47;100.00;100457.63;5072297;28;20385;-84
2022/04/11 03:21:14;;;;;;;9.15;5.55;;;;;;;-0.47;100.00;100468.13;5073735;28;20082;-84
2022/04/11 03:23:40;;;;;;;10.27;5.53;;;;;;;-0.47;100.00;100468.13;5072701;28;20016;-84
2022/04/11 03:26:05;;;;;;;8.85;5.43;;;;;;;-0.45;100.00;100466.41;5072430;28;20029;-84
2022/04/11 03:28:30;;;;;;;11.25;6.13;;;;;;;-0.51;100.00;100466.28;5074191;28;20021;-84
2022/04/11 03:30:55;;;;;;;10.73;5.78;;;;;;;-0.52;100.00;100462.81;5073789;28;20016;-86
2022/04/11 03:33:21;;;;;;;11.75;5.93;;;;;;;-0.54;100.00;100464.47;5074129;28;20030;-85
2022/04/11 03:35:46;;;;;;;8.73;5.90;;;;;;;-0.60;100.00;100467.91;5072937;28;20024;-85
2022/04/11 03:38:11;;;;;;;9.52;5.35;;;;;;;-0.59;100.00;100467.03;5072945;28;20501;-84
2022/04/11 03:40:37;;;;;;;11.02;6.57;;;;;;;-0.65;100.00;100469.56;5074413;28;20024;-84
2022/04/11 03:43:03;;;;;;;10.60;6.30;;;;;;;-0.63;100.00;100467.84;5071546;28;20025;-83
2022/04/11 03:45:28;;;;;;;11.60;6.38;;;;;;;-0.78;100.00;100473.66;5071888;28;20392;-84
2022/04/11 03:47:53;;;;;;;11.25;5.68;;;;;;;-0.74;100.00;100474.59;5072998;28;20478;-83
2022/04/11 03:50:19;;;;;;;13.43;6.97;;;;;;;-0.83;100.00;100476.22;5073411;28;20031;-83
2022/04/11 03:52:44;;;;;;;10.68;5.72;;;;;;;-0.84;100.00;100479.66;5074009;28;20078;-86
2022/04/11 03:55:09;;;;;;;11.25;6.07;;;;;;;-0.86;100.00;100485.72;5073567;28;20493;-83
2022/04/11 03:57:35;;;;;;;13.27;6.10;;;;;;;-0.89;100.00;100481.31;5073974;28;20024;-84
2022/04/11 04:00:00;;;;;;;9.50;6.03;;;;;;;-0.87;100.00;100482.22;5073320;28;20466;-83
2022/04/11 04:02:26;;;;;;;10.27;5.47;;;;;;;-0.90;100.00;100479.53;5073085;28;20495;-84
2022/04/11 04:04:51;;;;;;;10.88;6.18;;;;;;;-0.92;100.00;100481.25;5072959;28;20131;-83
2022/04/11 04:07:16;;;;;;;10.15;6.00;;;;;;;-0.93;100.00;100476.88;5074756;28;20035;-84
2022/04/11 04:09:42;;;;;;;13.05;6.45;;;;;;;-0.93;100.00;100479.50;5077337;28;20096;-84
2022/04/11 04:12:08;;;;;;;12.82;6.65;;;;;;;-0.97;100.00;100482.88;5076779;28;20491;-83
2022/04/11 04:14:36;;;;;;;12.80;6.82;;;;;;;-0.96;100.00;100479.44;5075532;28;20031;-87
2022/04/11 04:17:02;;;;;;;12.68;6.82;;;;;;;-0.94;100.00;100477.72;5075300;28;20021;-84
2022/04/11 04:19:27;;;;;;;10.70;6.78;;;;;;;-0.93;100.00;100472.50;5075323;28;20107;-85
2022/04/11 04:21:52;;;;;;;11.15;6.68;;;;;;;-0.93;100.00;100474.25;5075084;28;20024;-83
2022/04/11 04:24:22;;;;;;;11.73;6.72;;;;;;;-0.94;100.00;100469.84;5076750;28;20029;-83
2022/04/11 04:26:48;;;;;;;13.52;6.97;;;;;;;-0.95;100.00;100474.19;5076942;28;20436;-84
2022/04/11 04:29:14;;;;;;;15.32;7.40;;;;;;;-0.96;100.00;100477.69;5076222;28;20020;-82
2022/04/11 04:31:39;;;;;;;14.02;7.53;;;;;;;-0.99;100.00;100476.72;5076363;28;20385;-83
2022/04/11 04:34:04;;;;;;;11.73;7.10;;;;;;;-0.97;100.00;100477.66;5076234;28;20024;-84
2022/04/11 04:36:30;;;;;;;13.57;6.82;;;;;;;-0.96;100.00;100472.44;5076589;28;20103;-84
2022/04/11 04:38:55;;;;;;;11.10;6.82;;;;;;;-0.98;100.00;100486.38;5075284;28;20033;-82
2022/04/11 04:41:20;;;;;;;12.27;7.45;;;;;;;-1.00;100.00;100477.59;5075413;28;20474;-84
2022/04/11 04:43:46;;;;;;;12.15;6.80;;;;;;;-0.99;100.00;100474.13;5077057;28;20052;-83
2022/04/11 04:46:11;;;;;;;13.93;6.60;;;;;;;-1.01;100.00;100474.09;5077855;28;20103;-82
2022/04/11 04:48:36;;;;;;;12.98;6.47;;;;;;;-1.04;100.00;100474.91;5075525;28;20036;-84
2022/04/11 04:51:02;;;;;;;11.73;6.80;;;;;;;-1.07;100.00;100482.72;5076365;28;20382;-83
2022/04/11 04:53:27;;;;;;;13.85;6.25;;;;;;;-1.03;100.00;100487.16;5075566;28;20028;-83
2022/04/11 04:55:53;;;;;;;12.65;7.05;;;;;;;-1.05;100.00;100474.88;5075753;28;20020;-83
2022/04/11 04:58:18;;;;;;;11.55;6.53;;;;;;;-1.04;100.00;100482.78;5076497;28;20085;-83
2022/04/11 05:00:43;;;;;;;11.48;6.65;;;;;;;-1.04;100.00;100487.13;5076143;28;20020;-83
2022/04/11 05:03:08;;;;;;;11.13;6.55;;;;;;;-1.02;100.00;100486.31;5076206;28;20478;-82
2022/04/11 05:05:35;;;;;;;12.90;6.72;;;;;;;-0.98;100.00;100484.63;5076325;28;20033;-83
2022/04/11 05:08:00;;;;;;;14.43;7.82;;;;;;;-0.92;100.00;100491.72;5076151;28;20508;-83
2022/04/11 05:10:26;;;;;;;14.07;7.63;;;;;;;-0.93;100.00;100474.25;5075234;28;20020;-81
2022/04/11 05:12:51;;;;;;;12.43;6.53;;;;;;;-0.87;100.00;100479.59;5076647;28;20021;-82
2022/04/11 05:15:16;;;;;;;14.88;7.28;;;;;;;-0.83;100.00;100476.22;5075117;28;20377;-81
2022/04/11 05:17:42;;;;;;;15.07;7.53;;;;;;;-0.81;100.00;100479.75;5075810;28;20031;-82
2022/04/11 05:20:09;;;;;;;11.80;7.45;;;;;;;-0.77;100.00;100479.81;5074949;28;20534;-83
2022/04/11 05:22:34;;;;;;;11.65;6.85;;;;;;;-0.82;100.00;100483.19;5075557;28;20036;-82
2022/04/11 05:24:59;;;;;;;15.25;7.88;;;;;;;-0.75;100.00;100491.22;5075515;28;20026;-81
2022/04/11 05:27:25;;;;;;;13.32;8.43;;;;;;;-0.66;100.00;100485.25;5079778;28;20101;-83
2022/04/11 05:29:50;;;;;;;14.82;7.82;;;;;;;-0.63;100.00;100486.19;5073898;28;20021;-83
2022/04/11 05:32:15;;;;;;;13.48;7.03;;;;;;;-0.52;100.00;100488.16;5074367;28;20025;-83
2022/04/11 05:34:41;;;;;;;12.27;6.82;;;;;;;-0.43;100.00;100484.78;5073600;28;20117;-83
2022/04/11 05:37:06;;;;;;;12.88;7.18;;;;;;;-0.39;100.00;100486.63;5075058;28;20074;-82
2022/04/11 05:39:32;;;;;;;16.60;7.93;;;;;;;-0.27;100.00;100492.09;5073974;28;20393;-83
2022/04/11 05:41:57;;;;;;;15.77;7.95;;;;;;;-0.15;100.00;100496.69;5074964;28;20028;-81
2022/04/11 05:44:23;;;;;;;11.68;7.38;;;;;;;-0.07;100.00;100493.28;5074601;28;20525;-83
2022/04/11 05:46:52;;;;;;;11.77;6.72;;;;;;;0.00;100.00;100500.44;5073526;28;20035;-82
2022/04/11 05:49:19;;;;;;;10.95;6.90;;;;;;;0.09;100.00;100504.94;5076295;28;20108;-80
2022/04/11 05:51:45;;;;;;;12.55;7.40;;;;;;;0.13;100.00;100511.16;5073148;28;20023;-82
2022/04/11 05:54:10;;;;;;;13.77;7.03;;;;;;;0.12;100.00;100493.63;5073726;28;20021;-82
2022/04/11 05:56:35;;;;;;;10.70;7.20;;;;;;;0.07;100.00;100490.91;5073308;28;20062;-82
2022/04/11 05:59:03;;;;;;;11.05;7.10;;;;;;;0.02;100.00;100490.84;5074419;28;20031;-80
2022/04/11 06:01:29;;;;;;;11.57;7.28;;;;;;;0.04;100.00;100496.13;5074878;28;20021;-80
2022/04/11 06:03:54;;;;;;;13.45;6.40;;;;;;;0.10;100.00;100491.84;5073042;28;20027;-81
2022/04/11 06:06:20;;;;;;;9.95;7.00;;;;;;;0.16;100.00;100495.44;5072944;28;20028;-82
2022/04/11 06:08:45;;;;;;;12.80;7.05;;;;;;;0.21;100.00;100499.00;5073277;28;20039;-82
2022/04/11 06:11:12;;;;;;;15.00;8.27;;;;;;;0.24;100.00;100509.56;5074233;28;20100;-82
2022/04/11 06:13:37;;;;;;;16.85;8.27;;;;;;;0.33;100.00;100499.22;5073504;28;20454;-82
2022/04/11 06:16:04;;;;;;;14.20;8.02;;;;;;;0.44;100.00;100506.38;5074564;28;20033;-82
2022/04/11 06:18:30;;;;;;;12.98;7.72;;;;;;;0.52;100.00;100499.50;5073787;28;20507;-82
2022/04/11 06:20:55;;;;;;;17.83;7.88;;;;;;;0.63;100.00;100506.66;5073895;28;20028;-82
2022/04/11 06:23:20;;;;;;;11.88;6.68;;;;;;;0.69;100.00;100497.97;5074018;28;20035;-82
2022/04/11 06:25:45;;;;;;;14.43;7.35;;;;;;;0.75;100.00;100508.56;5072795;28;20085;-80
2022/04/11 06:28:11;;;;;;;12.00;6.90;;;;;;;0.84;100.00;100495.56;5072540;28;20035;-82
2022/04/11 06:30:36;;;;;;;11.40;6.63;;;;;;;0.97;100.00;100490.47;5072956;28;20055;-80
2022/04/11 06:33:01;;;;;;;11.52;7.15;;;;;;;1.04;100.00;100502.81;5073603;28;20020;-80
2022/04/11 06:35:26;;;;;;;10.32;6.47;;;;;;;1.14;100.00;100497.66;5072335;28;20024;-81
2022/04/11 06:37:52;;;;;;;12.88;6.38;;;;;;;1.25;100.00;100489.91;5073809;28;20152;-81
2022/04/11 06:40:17;;;;;;;11.88;7.10;;;;;;;1.38;100.00;100491.84;5072398;28;20032;-81
2022/04/11 06:42:42;;;;;;;12.27;6.65;;;;;;;1.43;100.00;100483.97;5072437;28;20024;-82
2022/04/11 06:45:08;;;;;;;11.40;5.97;;;;;;;1.54;100.00;100492.00;5072420;28;20497;-82
2022/04/11 06:47:34;;;;;;;11.02;6.75;;;;;;;1.63;100.00;100476.28;5073785;28;20150;-80
2022/04/11 06:49:59;;;;;;;10.85;6.45;;;;;;;1.76;100.00;100484.31;5074021;28;20104;-79
2022/04/11 06:52:24;;;;;;;9.85;6.57;;;;;;;1.92;100.00;100487.09;5072139;28;20017;-81
2022/04/11 06:54:50;;;;;;;11.05;6.70;;;;;;;1.94;100.00;100490.59;5072122;28;20036;-81
2022/04/11 06:57:15;;;;;;;10.57;5.80;;;;;;;1.95;100.00;100492.38;5073174;28;20024;-82
2022/04/11 06:59:40;;;;;;;10.10;6.25;;;;;;;2.06;100.00;100489.84;5072143;28;20024;-81
2022/04/11 07:02:06;;;;;;;8.90;6.07;;;;;;;2.15;100.00;100489.03;5072013;28;20123;-81
2022/04/11 07:04:32;;;;;;;10.02;6.63;;;;;;;2.10;100.00;100486.38;5073486;28;20029;-82
2022/04/11 07:06:57;;;;;;;12.90;6.47;;;;;;;2.19;100.00;100491.69;5073147;28;20107;-79
2022/04/11 07:09:22;;;;;;;12.70;6.55;;;;;;;2.23;100.00;100498.78;5071912;28;20020;-81
2022/04/11 07:11:48;;;;;;;13.00;7.25;;;;;;;2.29;100.00;100487.41;5073304;28;20016;-80
2022/04/11 07:14:13;;;;;;;10.73;6.90;;;;;;;2.36;100.00;100484.81;5072121;28;20027;-81
2022/04/11 07:16:38;;;;;;;9.73;6.35;;;;;;;2.49;100.00;100485.78;5072051;28;20024;-81
2022/04/11 07:19:04;;;;;;;10.23;6.68;;;;;;;2.58;100.00;100483.19;5072480;28;20082;-81
2022/04/11 07:21:29;;;;;;;10.30;6.55;;;;;;;2.71;100.00;100483.25;5073650;28;20385;-80
2022/04/11 07:23:54;;;;;;;10.85;7.07;;;;;;;2.81;100.00;100489.50;5072817;28;20024;-81
2022/04/11 07:26:20;;;;;;;11.85;6.68;;;;;;;2.82;100.00;100485.97;5072582;28;20068;-83
2022/04/11 07:28:47;;;;;;;9.93;6.55;;;;;;;2.94;100.00;100478.09;5073715;28;20020;-83
2022/04/11 07:31:13;;;;;;;10.05;5.68;;;;;;;3.01;100.00;100477.28;5072226;28;20039;-81
2022/04/11 07:33:38;;;;;;;8.80;5.65;;;;;;;3.17;100.00;100482.59;5073488;28;20024;-82
2022/04/11 07:36:04;;;;;;;9.32;5.72;;;;;;;3.33;100.00;100477.38;5072112;28;20473;-81
2022/04/11 07:38:29;;;;;;;8.30;5.13;;;;;;;3.42;100.00;100487.09;5073047;28;20102;-80
2022/04/11 07:40:55;;;;;;;11.40;5.95;;;;;;;3.51;100.00;100496.78;5073108;28;20474;-81
2022/04/11 07:43:21;;;;;;;8.75;5.18;;;;;;;3.58;100.00;100490.66;5076486;28;20074;-82
2022/04/11 07:45:48;;;;;;;10.10;5.97;;;;;;;3.63;100.00;100488.91;5077501;28;20029;-81
2022/04/11 07:48:14;;;;;;;11.80;5.78;;;;;;;3.80;100.00;100498.59;5075812;28;20489;-82
2022/04/11 07:50:39;;;;;;;7.70;5.50;;;;;;;3.85;100.00;100491.56;5077756;28;20108;-82
2022/04/11 07:53:04;;;;;;;7.47;4.90;;;;;;;4.02;100.00;100501.28;5077681;28;20023;-81
2022/04/11 07:55:31;;;;;;;8.18;5.47;;;;;;;4.10;100.00;100485.41;5076677;28;20028;-83
2022/04/11 07:57:57;;;;;;;7.35;5.18;;;;;;;4.28;100.00;100495.09;5076775;28;20025;-82
2022/04/11 08:00:22;;;;;;;8.30;5.07;;;;;;;4.32;100.00;100490.69;5076883;28;20107;-83
2022/04/11 08:02:52;;;;;;;10.27;5.63;;;;;;;4.35;100.00;100490.69;5076287;28;20028;-81
2022/04/11 08:05:19;;;;;;;11.07;5.53;;;;;;;4.46;100.00;100498.59;5075315;28;20052;-82
2022/04/11 08:07:46;;;;;;;10.23;5.63;;;;;;;4.62;100.00;100498.56;5075146;28;20028;-81
2022/04/11 08:10:11;;;;;;;8.88;5.70;;;;;;;4.73;100.00;100495.91;5075401;28;20032;-82
2022/04/11 08:12:37;;;;;;;10.68;5.88;;;;;;;4.94;100.00;100496.75;5076441;28;20020;-82
2022/04/11 08:15:02;;;;;;;9.13;5.25;;;;;;;5.12;100.00;100493.16;5075337;28;20103;-82
2022/04/11 08:17:28;;;;;;;7.13;5.10;;;;;;;5.29;99.14;100494.84;5076817;28;20460;-81
2022/04/11 08:19:53;;;;;;;9.05;4.53;;;;;;;5.58;97.26;100491.16;5076788;28;20017;-83
2022/04/11 08:22:18;;;;;;;8.27;5.07;;;;;;;6.00;96.52;100482.06;5076448;28;20396;-83
2022/04/11 08:24:44;;;;;;;7.22;4.90;;;;;;;5.99;96.64;100501.50;5075186;28;20024;-82
2022/04/11 08:27:09;;;;;;;8.50;4.65;;;;;;;6.07;96.90;100499.69;5076451;28;20024;-83
2022/04/11 08:29:34;;;;;;;7.82;4.55;;;;;;;6.14;95.48;100505.81;5076261;28;20106;-82
2022/04/11 08:32:00;;;;;;;7.75;4.28;;;;;;;6.14;94.40;100506.69;5076358;28;20017;-81
2022/04/11 08:34:25;;;;;;;7.90;4.30;;;;;;;6.24;92.89;100518.09;5075322;28;20499;-84
2022/04/11 08:36:50;;;;;;;7.10;4.35;;;;;;;6.30;94.77;100511.88;5078028;28;20062;-81
2022/04/11 08:39:16;;;;;;;9.95;4.85;;;;;;;6.42;96.13;100499.38;5074748;28;20081;-83
2022/04/11 08:41:42;;;;;;;8.05;4.47;;;;;;;6.54;91.95;100514.31;5076017;28;20027;-82
2022/04/11 08:44:07;;;;;;;8.52;4.05;;;;;;;6.53;87.53;100516.09;5076349;28;20036;-83
2022/04/11 08:46:34;;;;;;;7.32;4.30;;;;;;;6.69;90.97;100518.59;5074986;28;20442;-83
2022/04/11 08:49:01;;;;;;;7.30;4.00;;;;;;;6.78;89.52;100515.84;5074734;28;20031;-81
2022/04/11 08:51:29;;;;;;;6.93;4.40;;;;;;;6.93;89.06;100516.59;5076352;28;20389;-81
2022/04/11 08:53:56;;;;;;;7.40;4.10;;;;;;;6.98;87.94;100513.88;5073890;28;20020;-83
2022/04/11 08:56:21;;;;;;;7.82;4.40;;;;;;;7.22;87.33;100512.69;5074666;28;20115;-83
2022/04/11 08:58:46;;;;;;;8.55;4.50;;;;;;;7.35;85.24;100517.84;5075791;28;20063;-83
2022/04/11 09:01:11;;;;;;;7.03;4.57;;;;;;;7.68;87.31;100502.34;5074426;28;20028;-81
2022/04/11 09:03:37;;;;;;;8.30;4.20;;;;;;;7.78;81.15;100511.06;5074528;28;20046;-81
2022/04/11 09:06:10;;;;;;;11.70;4.10;;;;;;;7.54;77.36;100507.88;5074179;28;20066;-81
2022/04/11 09:08:52;;;;;;;5.97;4.00;;;;;;;7.79;85.05;100501.31;5074282;28;20047;-82
2022/04/11 09:11:32;;;;;;;9.95;4.25;;;;;;;7.92;80.27;100496.69;5075704;28;20477;-83
2022/04/11 09:14:00;;;;;;;6.47;4.38;;;;;;;8.08;81.18;100493.78;5075719;28;20038;-80
2022/04/11 09:16:26;;;;;;;7.85;4.28;;;;;;;8.04;80.03;100491.16;5075228;28;20048;-83
2022/04/11 09:18:54;;;;;;;6.15;4.15;;;;;;;8.08;78.75;100492.00;5075516;28;20064;-82
2022/04/11 09:21:21;;;;;;;6.22;4.07;;;;;;;8.28;77.06;100488.13;5075490;28;20028;-83
2022/04/11 09:23:47;;;;;;;7.50;4.18;;;;;;;8.65;82.49;100485.75;5073945;28;20028;-82
2022/04/11 09:26:20;;;;;;;7.20;3.90;;;;;;;8.57;77.97;100489.41;5075212;28;20103;-82
2022/04/11 09:29:12;;;;;;;7.60;4.03;;;;;;;8.87;76.98;100482.66;5073913;28;20024;-83
2022/04/11 09:31:38;;;;;;;7.85;4.32;;;;;;;9.21;73.96;100484.63;5069254;28;20032;-82
2022/04/11 09:34:14;;;;;;;8.82;4.03;;;;;;;9.33;73.91;100486.16;5075276;28;20020;-83
2022/04/11 09:36:49;;;;;;;6.93;4.00;;;;;;;9.55;73.74;100479.47;5073624;28;20055;-82
2022/04/11 09:39:15;;;;;;;5.85;3.67;;;;;;;9.60;69.62;100475.78;5073560;28;20020;-81
2022/04/11 09:41:42;;;;;;;6.88;4.60;;;;;;;9.19;69.57;100467.81;5073471;28;20537;-83
2022/04/11 09:44:28;;;;;;;8.35;4.20;;;;;;;9.37;71.36;100470.97;5074913;28;20024;-81
2022/04/11 09:46:55;;;;;;;7.82;4.60;;;;;;;9.48;70.65;100468.94;5073530;28;20556;-83
2022/04/11 09:49:22;;;;;;;8.05;4.25;;;;;;;9.77;71.30;100466.50;5073476;28;20068;-82
2022/04/11 09:52:09;;;;;;;8.98;4.22;;;;;;;9.98;71.87;100468.69;5074760;28;20104;-83
2022/04/11 09:54:49;;;;;;;7.78;4.28;;;;;;;9.90;68.80;100467.09;5073557;28;20024;-84
2022/04/11 09:57:18;;;;;;;8.95;4.43;;;;;;;10.25;64.33;100467.13;5073213;28;20028;-83
2022/04/11 09:59:45;;;;;;;9.30;5.05;;;;;;;9.86;56.86;100473.44;5074664;28;20024;-83
2022/04/11 10:02:14;;;;;;;10.85;4.35;;;;;;;9.75;55.48;100472.78;5073165;28;20481;-82
2022/04/11 10:04:39;;;;;;;9.73;5.70;;;;;;;9.98;56.41;100474.91;5074091;28;20133;-82
2022/04/11 10:07:09;;;;;;;7.35;4.00;;;;;;;10.38;57.65;100477.50;5074551;28;20120;-83
2022/04/11 10:09:39;;;;;;;9.18;5.00;;;;;;;10.70;57.13;100474.88;5074008;28;20496;-83
2022/04/11 10:12:05;;;;;;;8.27;4.45;;;;;;;10.90;54.57;100474.31;5073825;28;20020;-82
2022/04/11 10:14:30;;;;;;;7.60;4.65;;;;;;;11.26;54.57;100470.63;5074541;28;20374;-82
2022/04/11 10:17:01;;;;;;;8.65;4.80;;;;;;;11.34;52.40;100472.22;5074313;28;20032;-81
2022/04/11 10:19:31;;;;;;;8.90;5.05;;;;;;;11.44;51.43;100473.66;5072893;28;20104;-83
2022/04/11 10:22:03;;;;;;;9.00;4.68;;;;;;;11.42;52.12;100463.91;5073364;28;20165;-83
2022/04/11 10:24:33;;;;;;;8.07;4.65;;;;;;;11.90;53.20;100465.13;5074665;28;20020;-84
2022/04/11 10:27:19;;;;;;;12.43;4.97;;;;;;;11.92;49.45;100463.25;5074163;28;20469;-82
2022/04/11 10:29:45;;;;;;;9.13;5.13;;;;;;;11.97;49.37;100463.09;5075053;28;20025;-82
2022/04/11 10:32:13;;;;;;;8.23;4.82;;;;;;;12.22;49.05;100453.38;5074380;28;20032;-81
2022/04/11 10:34:54;;;;;;;9.32;5.30;;;;;;;12.55;53.01;100466.53;5073482;28;20047;-83
2022/04/11 10:37:21;;;;;;;9.38;5.32;;;;;;;12.56;45.86;100462.03;5074511;28;20040;-83
2022/04/11 10:39:48;;;;;;;8.60;5.32;;;;;;;12.42;44.72;100454.50;5072870;28;20025;-82
2022/04/11 10:42:21;;;;;;;11.68;5.30;;;;;;;12.37;42.66;100450.19;5074369;28;20028;-82
2022/04/11 10:44:56;;;;;;;8.77;5.20;;;;;;;12.31;43.00;100447.72;5072809;28;20055;-81
2022/04/11 10:47:30;;;;;;;9.82;5.63;;;;;;;11.59;43.16;100440.22;5075097;28;20035;-82
2022/04/11 10:49:55;;;;;;;10.30;5.78;;;;;;;12.17;44.94;100430.34;5073188;28;20554;-84
2022/04/11 10:52:31;;;;;;;8.77;5.07;;;;;;;12.86;43.70;100432.38;5072708;28;20056;-83
2022/04/11 10:55:04;;;;;;;8.95;5.28;;;;;;;12.72;43.63;100431.09;5072800;28;20108;-82
2022/04/11 10:57:36;;;;;;;9.30;4.90;;;;;;;13.34;43.39;100427.00;5073297;28;20111;-83
2022/04/11 11:00:05;;;;;;;9.38;5.22;;;;;;;13.25;41.97;100433.59;5074184;28;20473;-82
2022/04/11 11:05:42;;;;;;;7.93;5.05;;;;;;;13.80;40.22;100423.44;5074601;28;20112;-83
2022/04/11 11:08:11;;;;;;;9.63;5.35;;;;;;;13.81;44.29;100418.94;5073628;28;20024;-82
2022/04/11 11:10:42;;;;;;;9.82;5.57;;;;;;;14.06;41.79;100425.94;5072448;28;20468;-82
2022/04/11 11:13:27;;;;;;;8.68;5.38;;;;;;;13.62;43.83;100406.28;5073839;28;20409;-81
2022/04/11 11:16:00;;;;;;;8.93;5.15;;;;;;;13.57;43.57;100413.63;5073952;28;20025;-84
2022/04/11 11:18:45;;;;;;;8.25;5.00;;;;;;;13.99;42.60;100401.19;5073899;28;20070;-83